This is the latest recevied weather packets stored in our database for station/object YREN. If no packets are shown the sender has not sent any weather packets the latest 10 day(s).
| Time | Temp. | Humidity | Pressure | Rain* | Wind** | Luminosity | Snow |
|---|---|---|---|---|---|---|---|
| 1788581104 | 19.44° C | 42% | 1012.4 hPa | 0.25 mm | - | - | - |
| 1788580205 | 17.78° C | 50% | 1012.6 hPa | 0 mm | - | - | - |
| 1788579304 | 17.78° C | 50% | 1012.6 hPa | 0 mm | - | - | - |
| 1788578404 | 17.22° C | 58% | 1012.6 hPa | 0 mm | - | - | - |
| 1788577504 | 17.22° C | 58% | 1012.6 hPa | 0 mm | - | - | - |
| 1788576604 | 18.89° C | 46% | 1012.3 hPa | 0 mm | - | - | - |
| 1788575704 | 18.89° C | 46% | 1012.3 hPa | 0 mm | - | - | - |
| 1788574804 | 18.33° C | 49% | 1012.3 hPa | 0 mm | - | - | - |
| 1788573904 | 18.33° C | 49% | 1012.3 hPa | 0 mm | - | - | - |
| 1788573004 | 18.33° C | 49% | 1012.2 hPa | 0 mm | - | - | - |
| 1788572104 | 18.33° C | 49% | 1012.2 hPa | 0 mm | - | - | - |
| 1788571982 | 17.78° C | 52% | 1012.2 hPa | 0 mm | - | - | - |
| 1788571512 | 17.78° C | 52% | 1012.2 hPa | 0 mm | - | - | - |
| 1788571178 | 17.78° C | 52% | 1012.2 hPa | 0 mm | - | - | - |
| 1788570936 | 17.78° C | 52% | 1012.2 hPa | 0 mm | - | - | - |
| 1788570634 | 17.78° C | 52% | 1012.2 hPa | 0 mm | - | - | - |
| 1788570304 | 17.78° C | 52% | 1012.2 hPa | 0 mm | - | - | - |
| 1788569630 | 17.78° C | 51% | 1012.1 hPa | 0 mm | - | - | - |
| 1788569404 | 17.78° C | 51% | 1012.1 hPa | 0 mm | - | - | - |
| 1788568503 | 17.78° C | 51% | 1012.1 hPa | 0 mm | - | - | - |
| 1788567604 | 17.22° C | 53% | 1012.2 hPa | 0 mm | - | - | - |
| 1788567418 | 17.22° C | 53% | 1012.2 hPa | 0 mm | - | - | - |
| 1788567378 | 17.22° C | 53% | 1012.2 hPa | 0 mm | - | - | - |
| 1788566704 | 17.22° C | 53% | 1012.2 hPa | 0 mm | - | - | - |
| 1788565804 | 17.22° C | 55% | 1012.2 hPa | 0 mm | - | - | - |
* Rain latest hour (hover to see other rain measurements)
** Current wind speed in m/s (hover to see current wind gust speed)